Time;durP1;ratioP1;P1;durP2;ratioP2;P2;SDS_P1;SDS_P2;PMS_P1;PMS_P2;Temp;Humidity;BMP_temperature;BMP_pressure;BME280_temperature;BME280_humidity;BME280_pressure;Samples;Min_cycle;Max_cycle;Signal;HPM_P1;HPM_P2
2023/09/23 00:00:55;;;;;;;0.68;0.60;;;20.20;91.00;;;;;;5016237;28;20025;-85
2023/09/23 00:03:23;;;;;;;0.98;0.60;;;20.20;91.00;;;;;;5016315;28;20478;-86
2023/09/23 00:05:49;;;;;;;0.95;0.70;;;20.20;91.00;;;;;;5016244;28;20021;-85
2023/09/23 00:08:18;;;;;;;1.23;0.80;;;20.20;91.00;;;;;;5016462;28;20083;-85
2023/09/23 00:10:44;;;;;;;0.93;0.60;;;20.20;90.90;;;;;;5015775;28;20056;-85
2023/09/23 00:13:10;;;;;;;1.27;0.60;;;20.30;90.90;;;;;;5033832;28;20113;-85
2023/09/23 00:15:40;;;;;;;0.85;0.60;;;20.20;90.90;;;;;;5016110;28;20120;-85
2023/09/23 00:18:06;;;;;;;0.88;0.70;;;20.20;90.90;;;;;;5034064;28;20032;-86
2023/09/23 00:20:32;;;;;;;1.00;0.70;;;20.20;90.80;;;;;;5015821;28;20061;-85
2023/09/23 00:22:58;;;;;;;1.33;0.60;;;20.20;90.80;;;;;;5033732;28;20099;-85
2023/09/23 00:25:24;;;;;;;1.30;0.70;;;20.20;90.80;;;;;;5015927;28;20092;-86
2023/09/23 00:27:49;;;;;;;1.40;0.90;;;20.20;90.80;;;;;;5014901;28;20021;-85
2023/09/23 00:30:15;;;;;;;0.80;0.80;;;20.20;90.80;;;;;;5015721;28;20022;-85
2023/09/23 00:32:41;;;;;;;0.90;0.70;;;20.20;90.90;;;;;;5015907;28;20029;-85
2023/09/23 00:35:10;;;;;;;0.80;0.60;;;20.20;90.90;;;;;;5015874;28;20614;-85
2023/09/23 00:37:36;;;;;;;1.08;0.77;;;20.20;90.90;;;;;;5033491;28;20022;-85
2023/09/23 00:40:03;;;;;;;1.10;0.77;;;20.10;90.90;;;;;;5015462;28;20394;-85
2023/09/23 00:42:28;;;;;;;1.08;0.80;;;20.10;90.90;;;;;;5015770;28;20033;-82
2023/09/23 00:44:54;;;;;;;1.13;0.85;;;20.20;90.90;;;;;;5015972;28;20025;-82
2023/09/23 00:47:20;;;;;;;1.05;0.80;;;20.10;90.90;;;;;;5015666;28;20044;-82
2023/09/23 00:49:46;;;;;;;2.10;0.90;;;20.10;90.90;;;;;;5015466;28;20108;-85
2023/09/23 00:52:14;;;;;;;1.23;0.75;;;20.10;90.90;;;;;;5015646;28;20026;-85
2023/09/23 00:54:41;;;;;;;1.75;0.98;;;20.10;90.90;;;;;;5015589;28;20056;-85
2023/09/23 00:57:07;;;;;;;0.95;0.63;;;20.10;90.90;;;;;;5033077;28;20025;-85
2023/09/23 00:59:35;;;;;;;1.02;0.70;;;20.10;91.00;;;;;;5032860;28;20026;-85
2023/09/23 01:02:04;;;;;;;1.15;0.70;;;20.10;91.00;;;;;;5015348;28;20186;-85
2023/09/23 01:04:31;;;;;;;1.30;0.85;;;20.10;91.00;;;;;;5015289;28;20457;-85
2023/09/23 01:06:59;;;;;;;1.63;1.00;;;20.10;91.00;;;;;;5015113;28;20036;-85
2023/09/23 01:09:25;;;;;;;1.38;0.80;;;20.20;91.00;;;;;;5032763;28;20022;-84
2023/09/23 01:11:52;;;;;;;1.42;0.75;;;20.20;90.90;;;;;;5015155;28;20147;-85
2023/09/23 01:14:21;;;;;;;2.13;1.02;;;20.20;91.00;;;;;;5014909;28;20487;-85
2023/09/23 01:16:53;;;;;;;1.60;0.90;;;20.20;90.90;;;;;;5015368;28;20033;-85
2023/09/23 01:19:26;;;;;;;1.58;0.90;;;20.20;90.80;;;;;;5015286;28;20026;-85
2023/09/23 01:21:54;;;;;;;2.05;0.90;;;20.20;90.80;;;;;;5032750;28;20032;-85
2023/09/23 01:24:19;;;;;;;1.35;0.90;;;20.10;90.80;;;;;;5015086;28;20029;-85
2023/09/23 01:26:52;;;;;;;1.30;1.00;;;20.10;90.80;;;;;;5014961;28;20025;-85
2023/09/23 01:29:27;;;;;;;1.20;1.00;;;20.10;90.80;;;;;;5015311;28;20025;-85
2023/09/23 01:32:22;;;;;;;1.45;1.00;;;20.10;90.90;;;;;;5032844;28;20029;-85
2023/09/23 01:34:48;;;;;;;1.10;0.80;;;20.10;90.90;;;;;;5014960;28;20083;-85
2023/09/23 01:37:14;;;;;;;1.50;0.90;;;20.10;90.90;;;;;;5014995;28;20021;-85
2023/09/23 01:39:41;;;;;;;1.00;0.90;;;20.10;90.90;;;;;;5032106;28;20079;-85
2023/09/23 01:42:07;;;;;;;1.35;0.95;;;20.10;91.00;;;;;;5014767;28;20113;-85
2023/09/23 01:44:33;;;;;;;1.48;0.95;;;20.10;91.00;;;;;;5032545;28;20434;-85
2023/09/23 01:46:58;;;;;;;1.52;0.90;;;20.10;91.00;;;;;;5014827;28;20032;-86
2023/09/23 01:49:24;;;;;;;2.20;0.98;;;20.10;91.00;;;;;;5014720;28;20017;-84
2023/09/23 01:51:50;;;;;;;2.40;1.02;;;20.10;91.00;;;;;;5014838;28;20029;-85
2023/09/23 01:54:16;;;;;;;1.13;0.90;;;20.10;91.00;;;;;;5032415;28;20025;-85
2023/09/23 01:56:45;;;;;;;1.45;0.90;;;20.10;91.00;;;;;;5014701;28;20026;-85
2023/09/23 01:59:12;;;;;;;1.20;0.90;;;20.10;91.10;;;;;;5014753;28;20044;-85
2023/09/23 02:01:40;;;;;;;1.80;1.00;;;20.10;91.10;;;;;;5032420;28;20021;-85
2023/09/23 02:04:08;;;;;;;1.27;0.90;;;20.10;91.10;;;;;;5014826;28;20029;-85
2023/09/23 02:06:41;;;;;;;1.17;0.80;;;20.10;91.10;;;;;;5014500;28;20476;-85
2023/09/23 02:09:09;;;;;;;1.27;1.10;;;20.10;91.00;;;;;;5014683;28;20104;-85
2023/09/23 02:11:38;;;;;;;1.10;0.90;;;20.20;91.00;;;;;;5014216;28;20025;-85
2023/09/23 02:14:07;;;;;;;1.80;0.90;;;20.20;91.00;;;;;;5014492;28;20148;-85
2023/09/23 02:16:33;;;;;;;1.20;0.90;;;20.20;91.00;;;;;;5014456;28;20030;-85
2023/09/23 02:18:59;;;;;;;1.83;0.95;;;20.10;90.90;;;;;;5014659;28;20406;-86
2023/09/23 02:21:27;;;;;;;1.40;1.08;;;20.10;90.90;;;;;;5014312;28;20021;-85
2023/09/23 02:23:55;;;;;;;1.02;0.90;;;20.10;90.90;;;;;;5032154;28;20390;-85
2023/09/23 02:26:22;;;;;;;0.90;0.85;;;20.10;90.90;;;;;;5014467;28;20040;-85
2023/09/23 02:28:48;;;;;;;1.25;0.90;;;20.10;91.00;;;;;;5032434;28;20020;-85
2023/09/23 02:31:14;;;;;;;1.08;0.80;;;20.10;91.00;;;;;;5014331;28;20018;-85
2023/09/23 02:33:40;;;;;;;1.17;1.00;;;20.10;91.00;;;;;;5014637;28;20021;-85
2023/09/23 02:36:06;;;;;;;1.00;0.80;;;20.10;91.10;;;;;;5014426;28;20071;-85
2023/09/23 02:38:32;;;;;;;1.38;0.95;;;20.10;91.10;;;;;;5033138;28;20014;-85
2023/09/23 02:41:04;;;;;;;1.40;1.05;;;20.10;91.10;;;;;;5014268;28;20033;-85
2023/09/23 02:43:29;;;;;;;1.50;1.10;;;20.10;91.10;;;;;;5014777;28;20032;-85
2023/09/23 02:46:00;;;;;;;1.08;0.90;;;20.10;91.10;;;;;;5014552;28;20017;-84
2023/09/23 02:48:26;;;;;;;1.50;0.85;;;20.10;91.10;;;;;;5014273;28;20426;-84
2023/09/23 02:50:52;;;;;;;0.85;0.80;;;20.10;91.10;;;;;;5033792;28;20033;-86
2023/09/23 02:53:19;;;;;;;0.90;0.80;;;20.10;91.10;;;;;;5035614;28;20018;-85
2023/09/23 02:55:51;;;;;;;2.03;0.80;;;20.00;91.10;;;;;;5015731;28;20654;-85
2023/09/23 02:58:18;;;;;;;1.10;0.90;;;20.10;91.20;;;;;;5003954;28;20403;-84
2023/09/23 03:00:57;;;;;;;1.77;1.10;;;20.00;91.20;;;;;;5026424;28;20033;-85
2023/09/23 03:03:23;;;;;;;1.35;0.88;;;20.10;91.20;;;;;;5037519;28;20033;-84
2023/09/23 03:05:54;;;;;;;1.52;1.00;;;20.10;91.10;;;;;;5055161;28;20029;-85
2023/09/23 03:08:22;;;;;;;1.90;1.08;;;20.10;91.10;;;;;;5037402;28;20028;-85
2023/09/23 03:10:49;;;;;;;1.40;0.90;;;20.10;91.10;;;;;;5037192;28;20386;-85
2023/09/23 03:13:15;;;;;;;1.63;1.00;;;20.10;91.10;;;;;;5037473;28;20035;-85
2023/09/23 03:16:04;;;;;;;1.55;1.10;;;20.10;91.10;;;;;;5037250;28;20057;-85
2023/09/23 03:18:33;;;;;;;0.88;0.82;;;20.10;91.00;;;;;;5037423;28;20071;-84
2023/09/23 03:21:09;;;;;;;1.30;1.00;;;20.10;91.00;;;;;;5036843;28;20025;-85
2023/09/23 03:23:37;;;;;;;1.45;0.90;;;20.10;91.00;;;;;;5055002;28;20474;-85
2023/09/23 03:26:04;;;;;;;1.63;1.05;;;20.10;91.10;;;;;;5037200;28;20029;-85
2023/09/23 03:28:30;;;;;;;1.05;0.90;;;20.10;91.10;;;;;;5036813;28;20375;-85
2023/09/23 03:31:02;;;;;;;1.67;0.90;;;20.10;91.10;;;;;;5036763;28;20028;-84
2023/09/23 03:33:28;;;;;;;1.38;1.00;;;20.10;91.10;;;;;;5037029;28;20479;-84
2023/09/23 03:35:54;;;;;;;1.30;1.00;;;20.10;91.20;;;;;;5037027;28;20025;-85
2023/09/23 03:38:20;;;;;;;1.38;1.10;;;20.00;91.10;;;;;;5037007;28;20025;-85
2023/09/23 03:40:54;;;;;;;1.33;1.00;;;20.10;91.10;;;;;;5036621;28;20036;-84
2023/09/23 03:43:20;;;;;;;1.42;1.00;;;20.10;91.10;;;;;;5036641;28;20056;-84
2023/09/23 03:45:47;;;;;;;1.95;1.10;;;20.10;91.10;;;;;;5036755;28;20163;-84
2023/09/23 03:48:14;;;;;;;1.40;0.90;;;20.10;91.20;;;;;;5036641;28;20029;-85
2023/09/23 03:50:39;;;;;;;1.45;1.02;;;20.00;91.10;;;;;;5054130;28;20032;-84
2023/09/23 03:53:05;;;;;;;1.15;0.95;;;20.00;91.20;;;;;;5036603;28;20025;-85
2023/09/23 03:55:31;;;;;;;1.15;0.90;;;20.00;91.20;;;;;;5054338;28;20402;-85
2023/09/23 03:57:57;;;;;;;1.77;1.02;;;20.10;91.30;;;;;;5036529;28;20021;-84
2023/09/23 04:00:26;;;;;;;1.50;0.88;;;20.10;91.20;;;;;;5036044;28;20032;-84
2023/09/23 04:02:52;;;;;;;1.15;1.00;;;20.00;91.20;;;;;;5036266;28;20029;-84
2023/09/23 04:05:20;;;;;;;1.75;1.10;;;20.10;91.20;;;;;;5036626;28;20029;-84
2023/09/23 04:07:50;;;;;;;1.17;0.98;;;20.00;91.20;;;;;;5036184;28;20029;-84
2023/09/23 04:10:23;;;;;;;1.40;1.00;;;20.10;91.10;;;;;;5036198;28;20021;-84
2023/09/23 04:12:49;;;;;;;1.33;1.10;;;20.10;91.10;;;;;;5036146;28;20025;-84
2023/09/23 04:15:15;;;;;;;1.75;1.05;;;20.10;91.00;;;;;;5035869;28;20038;-85
2023/09/23 04:17:41;;;;;;;1.00;0.80;;;20.10;91.10;;;;;;5036099;28;20025;-84
2023/09/23 04:20:10;;;;;;;1.00;0.88;;;20.00;91.00;;;;;;5035789;28;20032;-84
2023/09/23 04:22:37;;;;;;;1.20;1.00;;;20.00;91.10;;;;;;5053861;28;20048;-84
2023/09/23 04:25:06;;;;;;;1.33;1.00;;;20.10;91.10;;;;;;5036034;28;20025;-84
2023/09/23 04:27:33;;;;;;;1.45;1.10;;;20.00;91.10;;;;;;5035979;28;20028;-84
2023/09/23 04:30:00;;;;;;;1.13;0.90;;;20.00;91.10;;;;;;5035695;28;20025;-84
2023/09/23 04:32:26;;;;;;;2.03;1.10;;;20.00;91.10;;;;;;5053720;28;20028;-84
2023/09/23 04:34:52;;;;;;;1.58;1.00;;;20.00;91.10;;;;;;5035706;28;20441;-84
2023/09/23 04:37:18;;;;;;;1.70;1.10;;;20.00;91.20;;;;;;5053371;28;20078;-84
2023/09/23 04:39:43;;;;;;;1.95;1.10;;;20.00;91.20;;;;;;5035483;28;20074;-84
2023/09/23 04:42:11;;;;;;;1.45;1.00;;;20.00;91.20;;;;;;5035869;28;20028;-84
2023/09/23 04:44:37;;;;;;;1.65;1.00;;;20.00;91.20;;;;;;5036096;28;20484;-85
2023/09/23 04:47:02;;;;;;;1.38;1.08;;;20.00;91.20;;;;;;5036723;28;20032;-85
2023/09/23 04:49:28;;;;;;;1.15;1.00;;;20.00;91.20;;;;;;5030377;28;20083;-83
2023/09/23 04:51:54;;;;;;;1.38;1.00;;;20.00;91.20;;;;;;5010480;28;20028;-84
2023/09/23 04:54:19;;;;;;;1.27;1.05;;;19.90;91.30;;;;;;4998171;28;20032;-85
2023/09/23 04:56:45;;;;;;;2.03;1.10;;;19.90;91.30;;;;;;5020011;28;20105;-84
2023/09/23 04:59:12;;;;;;;1.20;1.00;;;20.00;91.30;;;;;;5025450;28;20625;-84
2023/09/23 05:01:38;;;;;;;1.25;1.00;;;20.00;91.30;;;;;;5017222;28;20427;-84
2023/09/23 05:04:08;;;;;;;1.17;1.00;;;20.00;91.20;;;;;;5016847;28;20036;-85
2023/09/23 05:06:36;;;;;;;1.90;1.13;;;20.00;91.20;;;;;;5015997;28;20033;-84
2023/09/23 05:09:02;;;;;;;1.95;1.30;;;20.00;91.10;;;;;;5014442;28;20229;-84
2023/09/23 05:11:28;;;;;;;1.60;1.10;;;20.10;91.20;;;;;;5012403;28;20021;-84
2023/09/23 05:13:54;;;;;;;1.80;1.00;;;20.00;91.00;;;;;;5036271;28;20028;-84
2023/09/23 05:16:19;;;;;;;1.73;1.05;;;20.00;91.00;;;;;;5035696;28;20033;-84
2023/09/23 05:18:46;;;;;;;1.92;1.15;;;20.00;91.10;;;;;;5036133;28;20047;-85
2023/09/23 05:21:13;;;;;;;1.48;1.10;;;19.90;91.00;;;;;;5035832;28;20025;-85
2023/09/23 05:23:41;;;;;;;1.20;0.90;;;20.00;91.10;;;;;;5036292;28;20028;-84
2023/09/23 05:26:07;;;;;;;1.92;1.10;;;20.00;91.10;;;;;;5054825;28;20025;-84
2023/09/23 05:28:33;;;;;;;2.03;1.30;;;20.00;91.10;;;;;;5033020;28;20071;-82
2023/09/23 05:30:59;;;;;;;1.85;1.23;;;20.00;91.10;;;;;;5051062;28;20017;-84
2023/09/23 05:33:25;;;;;;;2.22;1.30;;;20.00;91.20;;;;;;5033195;28;20032;-84
2023/09/23 05:35:51;;;;;;;1.80;1.20;;;20.00;91.10;;;;;;5050403;28;20024;-86
2023/09/23 05:38:19;;;;;;;2.55;1.10;;;20.00;91.10;;;;;;5032424;28;20035;-86
2023/09/23 05:40:46;;;;;;;2.20;1.17;;;19.90;91.10;;;;;;5154023;23;20053;-86
2023/09/23 05:43:11;;;;;;;2.40;1.20;;;19.90;91.10;;;;;;4973998;28;20428;-86
2023/09/23 05:45:37;;;;;;;1.40;1.10;;;19.90;91.20;;;;;;4974387;28;20033;-86
2023/09/23 05:48:04;;;;;;;2.13;1.30;;;19.90;91.10;;;;;;4975082;28;20093;-84
2023/09/23 05:50:30;;;;;;;2.17;1.20;;;19.90;91.10;;;;;;4967228;28;20031;-85
2023/09/23 05:52:56;;;;;;;1.80;1.27;;;19.90;91.20;;;;;;4955938;28;20404;-84
2023/09/23 05:55:22;;;;;;;1.70;1.20;;;20.30;91.30;;;;;;4956124;28;20035;-84
2023/09/23 05:57:49;;;;;;;1.80;1.27;;;20.00;91.40;;;;;;4955116;28;20037;-83
2023/09/23 06:00:17;;;;;;;2.63;1.60;;;20.00;91.20;;;;;;4954079;28;20031;-82
2023/09/23 06:02:45;;;;;;;2.28;1.55;;;20.00;91.10;;;;;;4953470;28;20027;-83
2023/09/23 06:05:11;;;;;;;2.60;1.60;;;19.90;91.10;;;;;;4953442;28;20025;-82
2023/09/23 06:07:37;;;;;;;2.40;1.45;;;20.00;91.10;;;;;;4952704;28;20030;-84
2023/09/23 06:10:04;;;;;;;3.70;1.80;;;20.00;91.10;;;;;;4969909;28;20022;-83
2023/09/23 06:12:30;;;;;;;2.97;1.83;;;20.00;90.90;;;;;;4970840;28;20051;-83
2023/09/23 06:15:00;;;;;;;3.15;1.80;;;20.00;90.90;;;;;;4953421;28;20053;-84
2023/09/23 06:17:27;;;;;;;2.25;1.50;;;20.00;90.90;;;;;;4970377;28;20649;-83
2023/09/23 06:19:55;;;;;;;4.18;2.10;;;20.00;91.00;;;;;;4952738;28;20085;-82
2023/09/23 06:22:20;;;;;;;2.70;1.70;;;20.00;91.00;;;;;;4953107;28;20023;-84
2023/09/23 06:24:51;;;;;;;3.60;1.95;;;19.90;91.00;;;;;;4953422;28;20042;-82
2023/09/23 06:27:17;;;;;;;3.08;1.80;;;19.90;91.00;;;;;;4956405;28;20031;-83
2023/09/23 06:29:46;;;;;;;3.08;1.65;;;20.00;91.10;;;;;;4973687;28;20486;-83
2023/09/23 06:32:13;;;;;;;2.70;1.70;;;19.90;91.10;;;;;;4956493;28;20023;-84
2023/09/23 06:34:39;;;;;;;3.72;1.85;;;20.00;91.10;;;;;;4956403;28;20046;-82
2023/09/23 06:37:04;;;;;;;3.30;1.70;;;20.00;91.10;;;;;;4955967;28;20035;-81
2023/09/23 06:39:30;;;;;;;3.08;1.80;;;19.90;91.00;;;;;;4956079;28;20027;-83
2023/09/23 06:41:56;;;;;;;3.35;1.80;;;19.90;91.10;;;;;;4957230;28;20038;-86
2023/09/23 06:44:21;;;;;;;3.25;1.90;;;19.90;91.10;;;;;;4956662;28;20034;-84
2023/09/23 06:46:49;;;;;;;3.03;1.67;;;19.90;91.10;;;;;;4955148;28;20038;-83
2023/09/23 06:49:15;;;;;;;2.72;1.70;;;19.90;91.10;;;;;;4954401;28;20117;-81
2023/09/23 06:51:41;;;;;;;2.88;1.70;;;19.90;91.10;;;;;;4956579;28;20075;-83
2023/09/23 06:54:07;;;;;;;3.08;1.75;;;19.90;91.20;;;;;;4955965;28;20030;-81
2023/09/23 06:56:34;;;;;;;2.58;1.60;;;20.00;91.20;;;;;;4956538;28;20462;-83
2023/09/23 06:59:00;;;;;;;2.65;1.67;;;20.00;91.30;;;;;;4973229;28;20170;-81
2023/09/23 07:01:26;;;;;;;2.35;1.63;;;20.00;91.20;;;;;;4956227;28;20023;-84
2023/09/23 07:03:51;;;;;;;3.00;1.83;;;20.00;91.10;;;;;;4974175;28;20042;-82
2023/09/23 07:06:17;;;;;;;3.15;1.88;;;20.00;91.10;;;;;;4957014;28;20030;-86
2023/09/23 07:08:43;;;;;;;3.30;2.00;;;20.00;91.00;;;;;;4957126;28;20023;-84
2023/09/23 07:11:15;;;;;;;3.33;2.10;;;20.00;90.90;;;;;;4956064;28;20027;-85
2023/09/23 07:13:40;;;;;;;3.58;1.95;;;20.00;90.90;;;;;;4957091;28;20027;-84
2023/09/23 07:16:11;;;;;;;2.97;1.73;;;20.00;91.00;;;;;;4956370;28;20501;-84
2023/09/23 07:18:37;;;;;;;2.53;1.63;;;19.90;91.00;;;;;;4955298;28;20026;-82
2023/09/23 07:21:03;;;;;;;2.78;1.70;;;19.90;91.10;;;;;;4955149;28;20034;-81
2023/09/23 07:23:28;;;;;;;3.63;2.05;;;19.90;91.10;;;;;;4956194;28;20126;-83
2023/09/23 07:25:54;;;;;;;4.28;2.10;;;19.90;91.10;;;;;;4957049;28;20110;-85
2023/09/23 07:28:19;;;;;;;2.67;1.75;;;19.90;91.10;;;;;;4956029;28;20121;-84
2023/09/23 07:30:45;;;;;;;3.13;1.92;;;19.90;91.10;;;;;;4956707;28;20018;-87
2023/09/23 07:33:10;;;;;;;3.50;2.00;;;19.90;91.10;;;;;;4974370;28;20027;-85
2023/09/23 07:35:36;;;;;;;3.25;2.10;;;19.90;91.10;;;;;;4972840;28;20054;-82
2023/09/23 07:38:02;;;;;;;3.35;1.90;;;19.90;91.10;;;;;;4955808;28;20114;-84
2023/09/23 07:40:29;;;;;;;3.78;1.92;;;19.90;91.10;;;;;;4972950;28;20039;-84
2023/09/23 07:42:55;;;;;;;3.17;1.90;;;19.90;91.10;;;;;;4956475;28;20069;-84
2023/09/23 07:45:21;;;;;;;3.30;1.67;;;19.90;91.10;;;;;;4956290;28;20027;-84
2023/09/23 07:47:47;;;;;;;3.63;2.20;;;19.90;91.10;;;;;;4956589;28;20031;-85
2023/09/23 07:50:12;;;;;;;3.97;2.30;;;19.90;91.20;;;;;;4973360;28;20086;-86
2023/09/23 07:52:38;;;;;;;7.63;3.15;;;19.90;90.90;;;;;;4956380;28;20022;-84
2023/09/23 07:55:07;;;;;;;5.60;4.00;;;20.00;90.90;;;;;;4973507;28;20480;-84
2023/09/23 07:57:33;;;;;;;6.30;4.22;;;20.00;91.00;;;;;;4955619;28;20066;-83
2023/09/23 07:59:59;;;;;;;4.32;2.95;;;20.00;90.60;;;;;;4973370;28;20077;-85
2023/09/23 08:02:25;;;;;;;5.60;3.35;;;20.10;90.60;;;;;;4955900;28;20042;-83
2023/09/23 08:04:51;;;;;;;6.00;3.53;;;20.00;90.50;;;;;;4956229;28;20477;-85
2023/09/23 08:07:16;;;;;;;5.88;3.70;;;20.00;90.30;;;;;;4955638;28;20041;-85
2023/09/23 08:09:42;;;;;;;6.13;3.53;;;20.10;90.30;;;;;;4973047;28;20154;-84
2023/09/23 08:12:09;;;;;;;6.13;3.55;;;20.10;90.30;;;;;;4974300;28;20030;-83
2023/09/23 08:14:35;;;;;;;6.88;3.63;;;20.10;90.30;;;;;;4955523;28;20038;-83
2023/09/23 08:17:00;;;;;;;5.60;3.33;;;20.20;90.40;;;;;;4955048;28;20035;-81
2023/09/23 08:19:26;;;;;;;6.72;4.15;;;20.20;90.30;;;;;;4971986;28;20066;-83
2023/09/23 08:21:51;;;;;;;8.50;4.40;;;20.20;90.30;;;;;;4954747;28;20039;-84
2023/09/23 08:24:17;;;;;;;7.35;4.15;;;20.20;90.20;;;;;;4954857;28;20835;-84
2023/09/23 08:26:43;;;;;;;7.65;4.20;;;20.20;90.20;;;;;;4955444;28;20097;-84
2023/09/23 08:29:09;;;;;;;7.18;3.97;;;20.30;90.30;;;;;;4955912;28;20113;-83
2023/09/23 08:31:35;;;;;;;6.88;4.03;;;20.30;90.10;;;;;;4954521;28;20023;-83
2023/09/23 08:34:00;;;;;;;6.40;3.97;;;20.30;90.10;;;;;;4954260;28;20042;-81
2023/09/23 08:36:26;;;;;;;7.40;4.30;;;20.30;90.10;;;;;;4954612;28;20046;-81
2023/09/23 08:38:52;;;;;;;7.63;4.30;;;20.30;90.10;;;;;;4954073;28;20229;-81
2023/09/23 08:41:22;;;;;;;7.22;4.18;;;20.30;90.10;;;;;;4954449;28;20062;-86
2023/09/23 08:43:50;;;;;;;7.65;4.05;;;20.30;90.20;;;;;;4955339;28;20051;-83
2023/09/23 08:46:18;;;;;;;6.47;4.05;;;20.30;90.20;;;;;;4955182;28;20031;-83
2023/09/23 08:48:44;;;;;;;7.13;4.15;;;20.30;90.20;;;;;;4954825;28;20031;-83
2023/09/23 08:51:11;;;;;;;6.50;4.30;;;20.30;90.30;;;;;;4954599;28;20023;-84
2023/09/23 08:53:43;;;;;;;7.53;4.07;;;20.30;90.30;;;;;;4955079;28;20030;-81
2023/09/23 08:56:09;;;;;;;7.05;4.38;;;20.20;90.20;;;;;;4954636;28;20047;-83
2023/09/23 08:58:34;;;;;;;6.40;4.05;;;20.30;90.20;;;;;;4955112;28;20069;-84
2023/09/23 09:01:01;;;;;;;6.38;4.03;;;20.30;90.20;;;;;;4972054;28;20034;-84
2023/09/23 09:03:27;;;;;;;8.32;4.25;;;20.30;90.20;;;;;;4954865;28;20026;-84
2023/09/23 09:05:53;;;;;;;7.00;4.32;;;20.20;90.30;;;;;;4953192;28;20469;-84
2023/09/23 09:08:18;;;;;;;8.07;4.25;;;20.20;90.30;;;;;;4951344;28;20035;-84
2023/09/23 09:10:44;;;;;;;7.97;4.35;;;20.20;90.30;;;;;;4951228;28;20495;-84
2023/09/23 09:13:10;;;;;;;5.47;3.80;;;20.20;90.30;;;;;;4952041;28;20019;-84
2023/09/23 09:15:37;;;;;;;7.05;4.60;;;20.10;90.30;;;;;;4969448;28;20035;-83
2023/09/23 09:18:03;;;;;;;8.75;5.00;;;20.10;90.30;;;;;;4951764;28;20039;-85
2023/09/23 09:20:29;;;;;;;6.95;4.50;;;20.10;90.30;;;;;;4951486;28;20038;-84
2023/09/23 09:22:54;;;;;;;7.00;4.63;;;20.10;90.30;;;;;;4952011;28;20069;-84
2023/09/23 09:25:21;;;;;;;6.32;4.32;;;20.10;90.40;;;;;;4951474;28;20027;-84
2023/09/23 09:27:47;;;;;;;7.18;4.72;;;20.10;90.40;;;;;;4951804;28;20031;-85
2023/09/23 09:30:13;;;;;;;7.32;4.30;;;20.10;90.40;;;;;;4951247;28;20473;-84
2023/09/23 09:32:42;;;;;;;6.90;4.35;;;20.10;90.40;;;;;;4951815;28;20031;-85
2023/09/23 09:35:17;;;;;;;6.97;4.55;;;20.10;90.40;;;;;;4968927;28;20027;-84
2023/09/23 09:37:45;;;;;;;6.70;4.15;;;20.10;90.40;;;;;;4951318;28;20033;-83
2023/09/23 09:40:20;;;;;;;6.75;4.40;;;20.10;90.40;;;;;;4950912;28;20034;-85
2023/09/23 09:42:58;;;;;;;8.30;4.82;;;20.10;90.40;;;;;;4969234;28;20085;-84
2023/09/23 09:45:24;;;;;;;6.85;4.60;;;20.10;90.40;;;;;;4951333;28;20760;-83
2023/09/23 09:47:55;;;;;;;7.13;4.70;;;20.10;90.40;;;;;;4968995;28;20031;-85
2023/09/23 09:50:23;;;;;;;7.15;4.82;;;20.10;90.30;;;;;;4950804;28;20517;-84
2023/09/23 09:52:48;;;;;;;7.53;4.75;;;20.10;90.30;;;;;;4951860;28;20062;-83
2023/09/23 09:55:18;;;;;;;6.63;4.55;;;20.10;90.20;;;;;;4951597;28;20524;-85
2023/09/23 09:57:45;;;;;;;6.65;4.47;;;20.20;90.20;;;;;;4951256;28;20042;-85
2023/09/23 10:00:27;;;;;;;6.72;4.75;;;20.10;90.20;;;;;;4953015;28;20823;-83
2023/09/23 10:03:00;;;;;;;6.75;4.70;;;20.10;90.20;;;;;;4955689;28;20398;-85
2023/09/23 10:05:33;;;;;;;7.90;4.88;;;20.10;90.20;;;;;;4954924;28;20034;-84
2023/09/23 10:08:08;;;;;;;7.25;4.63;;;20.10;90.30;;;;;;4972467;28;20023;-84
2023/09/23 10:10:36;;;;;;;6.72;4.35;;;20.10;90.30;;;;;;4972715;28;20098;-84
2023/09/23 10:13:22;;;;;;;6.32;4.60;;;20.10;90.30;;;;;;4972303;28;20033;-84
2023/09/23 10:15:48;;;;;;;6.28;4.40;;;20.00;90.30;;;;;;4955060;28;20570;-85
2023/09/23 10:18:16;;;;;;;7.15;4.45;;;20.00;90.30;;;;;;4988497;28;20038;-82
2023/09/23 10:20:48;;;;;;;6.93;4.88;;;20.10;90.30;;;;;;4957288;28;20121;-81
2023/09/23 10:23:16;;;;;;;7.18;5.13;;;20.00;90.30;;;;;;4957185;28;20117;-81
2023/09/23 10:25:46;;;;;;;7.22;4.78;;;20.10;90.30;;;;;;4957597;28;20038;-84
2023/09/23 10:28:28;;;;;;;6.78;4.85;;;20.10;90.30;;;;;;4954721;29;20027;-85
2023/09/23 10:30:58;;;;;;;6.15;4.50;;;20.10;90.30;;;;;;4945556;28;20035;-85
2023/09/23 10:33:26;;;;;;;7.40;4.78;;;20.10;90.30;;;;;;4957891;28;20118;-85
2023/09/23 10:35:53;;;;;;;7.72;4.88;;;20.20;90.30;;;;;;4958362;28;20592;-81
2023/09/23 10:38:22;;;;;;;8.25;6.10;;;20.10;90.10;;;;;;4974026;28;20027;-84
2023/09/23 10:40:52;;;;;;;7.57;5.38;;;20.10;89.00;;;;;;4955371;28;20054;-84
2023/09/23 10:43:20;;;;;;;6.85;5.40;;;20.10;89.30;;;;;;4959006;28;20031;-83
2023/09/23 10:45:45;;;;;;;7.90;5.72;;;20.10;89.30;;;;;;4955926;28;20409;-83
2023/09/23 10:48:14;;;;;;;10.35;5.95;;;20.10;88.80;;;;;;4971807;28;20195;-81
2023/09/23 10:50:40;;;;;;;8.05;5.55;;;20.00;88.90;;;;;;4953219;28;20018;-84
2023/09/23 10:53:07;;;;;;;7.85;5.70;;;20.10;88.90;;;;;;4970412;28;20019;-84
2023/09/23 10:55:34;;;;;;;8.35;6.00;;;20.10;88.90;;;;;;4953205;28;20050;-84
2023/09/23 10:58:00;;;;;;;8.90;6.10;;;20.10;89.00;;;;;;4970436;28;20038;-84
2023/09/23 11:00:28;;;;;;;7.63;5.80;;;20.20;89.10;;;;;;4953048;28;20030;-83
2023/09/23 11:02:54;;;;;;;7.20;5.75;;;20.10;89.10;;;;;;4953724;28;20027;-84
2023/09/23 11:05:21;;;;;;;8.57;6.00;;;20.10;89.20;;;;;;4952917;28;20129;-86
2023/09/23 11:07:47;;;;;;;7.75;5.90;;;20.10;89.30;;;;;;4954753;28;20114;-84
2023/09/23 11:10:13;;;;;;;7.72;5.60;;;20.10;89.40;;;;;;4954187;28;20173;-85
2023/09/23 11:12:43;;;;;;;7.60;5.50;;;20.10;89.40;;;;;;4952602;28;20501;-84
2023/09/23 11:15:11;;;;;;;7.78;5.88;;;20.10;89.50;;;;;;4953216;28;20031;-84
2023/09/23 11:17:40;;;;;;;8.73;5.50;;;20.10;89.50;;;;;;4955060;28;20089;-84
2023/09/23 11:20:09;;;;;;;7.70;5.35;;;20.10;89.50;;;;;;4954302;28;20027;-85
2023/09/23 11:22:37;;;;;;;8.18;5.90;;;20.00;89.50;;;;;;4952338;28;20288;-82
2023/09/23 11:25:09;;;;;;;8.05;5.70;;;20.10;89.50;;;;;;4952688;28;20026;-84
2023/09/23 11:27:35;;;;;;;8.80;5.75;;;20.10;89.60;;;;;;4954898;28;20042;-84
2023/09/23 11:30:01;;;;;;;8.02;5.53;;;20.10;89.60;;;;;;4969317;28;20022;-85
2023/09/23 11:32:27;;;;;;;6.97;5.55;;;20.10;89.70;;;;;;4951923;28;20722;-82
2023/09/23 11:34:53;;;;;;;8.15;5.40;;;20.10;89.80;;;;;;4969671;28;20030;-85
2023/09/23 11:37:20;;;;;;;6.70;5.20;;;20.10;89.80;;;;;;4970820;28;20034;-84
2023/09/23 11:39:46;;;;;;;7.28;5.35;;;20.10;89.80;;;;;;4952740;28;20030;-85
2023/09/23 11:42:12;;;;;;;8.07;5.70;;;20.10;89.70;;;;;;4952146;28;20394;-82
2023/09/23 11:44:38;;;;;;;7.40;5.85;;;20.10;89.70;;;;;;4952928;28;20031;-84
2023/09/23 11:47:04;;;;;;;7.20;5.63;;;20.20;89.80;;;;;;4941760;28;20046;-84
2023/09/23 11:49:29;;;;;;;7.00;4.97;;;20.20;89.60;;;;;;4954636;28;20109;-84
2023/09/23 11:51:55;;;;;;;7.78;5.78;;;20.20;89.50;;;;;;4954563;28;20023;-82
2023/09/23 11:54:20;;;;;;;7.90;5.53;;;20.30;89.30;;;;;;4954291;28;20085;-84
2023/09/23 11:56:46;;;;;;;7.93;5.45;;;20.30;89.20;;;;;;4954455;28;20023;-84
2023/09/23 11:59:13;;;;;;;7.80;5.57;;;20.30;89.20;;;;;;4954531;28;20034;-85
2023/09/23 12:01:39;;;;;;;8.23;5.35;;;20.30;89.20;;;;;;4969515;28;20030;-82
2023/09/23 12:04:04;;;;;;;7.60;5.50;;;20.20;89.30;;;;;;4952369;28;20042;-85
2023/09/23 12:06:34;;;;;;;9.20;6.18;;;20.20;89.50;;;;;;4952415;28;20038;-84
2023/09/23 12:09:01;;;;;;;7.78;5.55;;;20.20;89.60;;;;;;4954508;28;20023;-84
2023/09/23 12:11:26;;;;;;;7.05;5.10;;;20.20;89.60;;;;;;4969578;28;20117;-84
2023/09/23 12:13:53;;;;;;;7.50;5.20;;;20.20;89.60;;;;;;4951668;28;20481;-83
2023/09/23 12:16:19;;;;;;;7.45;5.28;;;20.30;89.80;;;;;;4952235;28;20031;-85
2023/09/23 12:18:47;;;;;;;7.00;5.10;;;20.20;89.80;;;;;;4968813;28;20066;-85
2023/09/23 12:21:13;;;;;;;9.77;5.93;;;20.20;89.70;;;;;;4951266;28;20031;-84
2023/09/23 12:23:40;;;;;;;7.22;5.10;;;20.10;89.60;;;;;;4951548;28;20041;-82
2023/09/23 12:26:06;;;;;;;8.15;5.47;;;20.10;89.70;;;;;;4968869;28;20058;-84
2023/09/23 12:28:31;;;;;;;7.20;5.07;;;20.10;89.70;;;;;;4951184;28;20062;-83
2023/09/23 12:30:57;;;;;;;6.80;4.88;;;20.10;89.80;;;;;;4952718;28;20026;-84
2023/09/23 12:33:23;;;;;;;9.48;5.07;;;20.20;89.90;;;;;;4971122;28;20023;-82
2023/09/23 12:35:48;;;;;;;7.30;5.15;;;20.10;89.90;;;;;;4953970;28;20029;-84
2023/09/23 12:38:14;;;;;;;8.35;5.38;;;20.10;90.00;;;;;;4953795;28;20083;-82
2023/09/23 12:40:39;;;;;;;8.10;5.07;;;20.20;90.00;;;;;;4953715;28;20035;-84
2023/09/23 12:43:05;;;;;;;9.70;5.40;;;20.10;90.00;;;;;;4954155;28;20077;-84
2023/09/23 12:45:30;;;;;;;8.02;4.78;;;20.10;89.90;;;;;;4952628;28;20074;-85
2023/09/23 12:47:56;;;;;;;7.38;5.18;;;20.10;89.90;;;;;;4968090;28;20038;-81